• Join FlightAware (Why Join?)
  • Login
  • US Flag 
07:15PM EDT


 

Airport Tracker/Info


-or-


 

Live Flight TrackerFlight Track Log ✈ SWA267 ✈ 15-Apr-2013 ✈ KMCO - KORF

Flight Track Log - Related Links

Times and Time Zones

All times are in EDT time to prevent confusion due to time zone crossing. See the SWA267 flight status page for this flight to view local times or setup timezone preferences in your user account.

Time Position Orientation Groundspeed Altitude Reporting Facility
EDT Latitude Longitude Course Direction KTS MPH feet Rate Location/Type
10:15AM 28.4000 -81.3000 147° Southeast 175 201 700  Level Orlando TRACON
10:16AM 28.3333 -81.2500 147° Southeast 209 241 3,700 2,340 Climbing Orlando TRACON
10:18AM 28.3833 -81.2000 41° Northeast 276 318 6,400 2,820 Climbing Orlando TRACON
10:19AM 28.4500 -81.2167 348° North 281 323 9,700 2,520 Climbing Orlando TRACON
10:21AM 28.6406 -81.2722 346° North 353 406 14,300 2,400 Climbing Jacksonville Center
10:22AM 28.7369 -81.2967 347° North 353 406 17,400 2,700 Climbing Jacksonville Center
10:23AM 28.8372 -81.3211 348° North 353 406 19,700 2,100 Climbing Jacksonville Center
10:24AM 28.9378 -81.3481 347° North 359 413 21,700 2,100 Climbing Jacksonville Center
10:25AM 29.0425 -81.3772 346° North 367 422 23,900 1,800 Climbing Jacksonville Center
10:26AM 29.1514 -81.3947 352° North 377 434 25,400 1,560 Climbing Jacksonville Center
10:27AM 29.2642 -81.4047 356° North 394 453 27,100 1,380 Climbing Jacksonville Center
10:28AM 29.3853 -81.4172 355° North 411 473 28,200 1,440 Climbing Jacksonville Center
10:29AM 29.5150 -81.4319 354° North 428 493 30,000 1,800 Climbing Jacksonville Center
10:30AM 29.6342 -81.4422 356° North 428 493 31,800 1,680 Climbing Jacksonville Center
10:31AM 29.7531 -81.4547 355° North 428 493 33,400 1,500 Climbing Jacksonville Center
10:32AM 29.8681 -81.4650 356° North 421 484 34,800 1,500 Climbing Jacksonville Center
10:33AM 29.9831 -81.4778 355° North 421 484 36,400 1,080 Climbing Jacksonville Center
10:34AM 30.0981 -81.4881 356° North 421 484 37,000 300 Climbing Jacksonville Center
10:35AM 30.2108 -81.4961 356° North 416 479 37,000  Level Jacksonville Center
10:36AM 30.3278 -81.5089 355° North 416 479 37,000  Level Jacksonville Center
10:37AM 30.4469 -81.5022 North 416 479 37,000  Level Jacksonville Center
10:38AM 30.5636 -81.4933 North 416 479 37,000  Level Jacksonville Center
10:39AM 30.6742 -81.4819 North 426 490 37,000  Level Jacksonville Center
10:40AM 30.7931 -81.4753 North 426 490 37,000  Level Jacksonville Center
10:41AM 30.9097 -81.4567 North 426 490 37,000  Level Jacksonville Center
10:42AM 31.0197 -81.3847 29° Northeast 426 490 37,000  Level Jacksonville Center
10:43AM 31.1314 -81.3078 31° Northeast 439 505 37,000  Level Jacksonville Center
10:44AM 31.2411 -81.2331 30° Northeast 452 520 37,000  Level Jacksonville Center
10:45AM 31.3611 -81.1458 32° Northeast 463 533 37,000  Level Jacksonville Center
10:46AM 31.4706 -81.0658 32° Northeast 463 533 37,000  Level Jacksonville Center
10:47AM 31.5719 -80.9956 31° Northeast 463 533 37,000  Level Jacksonville Center
10:48AM 31.6939 -80.9075 32° Northeast 463 533 37,000  Level Jacksonville Center
10:49AM 31.7928 -80.8369 31° Northeast 463 533 37,000  Level Jacksonville Center
10:50AM 31.9147 -80.7533 30° Northeast 463 533 37,000  Level Jacksonville Center
10:51AM 32.0219 -80.6750 32° Northeast 458 527 37,000  Level Jacksonville Center
10:52AM 32.1208 -80.6064 30° Northeast 458 527 37,000  Level Jacksonville Center
10:53AM 32.2281 -80.5253 33° Northeast 458 527 37,000  Level Jacksonville Center
10:54AM 32.3372 -80.4486 31° Northeast 458 527 37,000  Level Jacksonville Center
10:55AM 32.4461 -80.3694 32° Northeast 458 527 37,000  Level Jacksonville Center
10:56AM 32.5531 -80.2875 33° Northeast 458 527 37,000  Level Jacksonville Center
10:57AM 32.6600 -80.2078 32° Northeast 458 527 37,000  Level Jacksonville Center
10:58AM 32.7708 -80.1256 32° Northeast 453 521 37,000  Level Jacksonville Center
10:59AM 32.8778 -80.0481 31° Northeast 453 521 37,000  Level Jacksonville Center
11:00AM 32.9800 -79.9508 39° Northeast 453 521 37,000  Level Jacksonville Center
11:01AM 33.0800 -79.8583 38° Northeast 459 528 37,000  Level Jacksonville Center
11:02AM 33.1797 -79.7606 39° Northeast 459 528 37,000  Level Jacksonville Center
11:03AM 33.2778 -79.6678 38° Northeast 454 522 37,000  Level Jacksonville Center
11:04AM 33.3733 -79.5722 40° Northeast 454 522 37,000  Level Jacksonville Center
11:05AM 33.4708 -79.4764 39° Northeast 454 522 37,000  Level Jacksonville Center
11:06AM 33.5664 -79.3856 38° Northeast 454 522 37,000  Level Jacksonville Center
11:07AM 33.6658 -79.2867 40° Northeast 454 522 37,000  Level Jacksonville Center
11:09AM 33.8511 -79.1022 40° Northeast 436 502 37,000  Level Washington Center
11:10AM 33.9478 -79.0089 39° Northeast 436 502 37,000  Level Washington Center
11:11AM 34.0444 -78.9125 40° Northeast 436 502 37,000  Level Washington Center
11:12AM 34.1431 -78.8161 39° Northeast 441 507 37,000  Level Washington Center
11:13AM 34.2375 -78.7194 40° Northeast 441 507 37,000  Level Washington Center
11:14AM 34.3358 -78.6225 39° Northeast 441 507 37,000 -180 Level Washington Center
11:15AM 34.4319 -78.5278 39° Northeast 441 507 36,700 -600 Descending Washington Center
11:16AM 34.5283 -78.4256 41° Northeast 441 507 35,800 -900 Descending Washington Center
11:17AM 34.6289 -78.3281 39° Northeast 441 507 35,000 -420 Descending Washington Center
11:18AM 34.7228 -78.2325 40° Northeast 441 507 35,000 -300 Level Washington Center
11:19AM 34.7994 -78.1542 40° Northeast 441 507 34,400 -780 Descending Washington Center
11:20AM 34.8978 -78.0483 41° Northeast 436 502 33,500 -960 Descending Washington Center
11:21AM 35.0000 -77.9400 41° Northeast 436 502 32,500 -1,260 Descending Washington Center
11:22AM 35.0939 -77.8411 41° Northeast 436 502 31,000 -1,260 Descending Washington Center
11:23AM 35.1731 -77.7264 50° Northeast 436 502 30,000 -960 Descending Washington Center
11:24AM 35.2564 -77.6092 49° Northeast 443 510 29,100 -960 Descending Washington Center
11:25AM 35.3356 -77.4992 49° Northeast 443 510 28,100 -1,200 Descending Washington Center
11:26AM 35.4347 -77.4325 29° Northeast 412 474 26,800 -1,200 Descending Washington Center
11:27AM 35.5336 -77.3761 25° Northeast 400 460 25,800 -1,020 Descending Washington Center
11:28AM 35.6344 -77.3172 25° Northeast 388 447 24,800 -1,740 Descending Washington Center
11:29AM 35.7314 -77.2578 26° Northeast 388 447 22,400 -1,800 Descending Washington Center
11:30AM 35.8261 -77.1983 27° Northeast 383 441 21,200 -720 Descending Washington Center
11:31AM 35.9208 -77.1283 31° Northeast 383 441 21,000 -120 Descending Washington Center
11:31AM 35.9883 -77.0758 32° Northeast 380 437 21,000 -420 Level Washington Center
11:33AM 36.0958 -76.9931 32° Northeast 376 433 20,200 -1,380 Descending Washington Center
11:33AM 36.1797 -76.9378 28° Northeast 394 453 18,200 -2,160 Descending Washington Center
11:34AM 36.2725 -76.8672 32° Northeast 388 447 16,100 -2,340 Descending Washington Center
11:35AM 36.3628 -76.8017 30° Northeast 375 432 13,500 -2,760 Descending Washington Center
11:36AM 36.4533 -76.7206 36° Northeast 374 430 10,600 -1,680 Descending Washington Center
11:38AM 36.5167 -76.6411 45° Northeast 306 352 10,200 -1,260 Descending Washington Center
11:39AM 36.5736 -76.5644 47° Northeast 307 353 8,100 -1,860 Descending Washington Center
11:39AM 36.6219 -76.5028 46° Northeast 287 330 6,700 -1,560 Descending Washington Center
11:40AM 36.6789 -76.4361 43° Northeast 277 319 5,200 -1,440 Descending Washington Center
11:41AM 36.7314 -76.3744 43° Northeast 260 299 3,800 -1,200 Descending Washington Center
11:42AM 36.7756 -76.3283 40° Northeast 211 243 3,000 -1,020 Descending Washington Center
11:43AM 36.8153 -76.2819 43° Northeast 182 209 1,900 -1,140 Descending Washington Center